Time;durP1;ratioP1;P1;durP2;ratioP2;P2;SDS_P1;SDS_P2;PMS_P1;PMS_P2;Temp;Humidity;BMP_temperature;BMP_pressure;BME280_temperature;BME280_humidity;BME280_pressure;Samples;Min_cycle;Max_cycle;Signal;HPM_P1;HPM_P2
2023/03/19 00:01:43;;;;;;;20.58;13.07;;;;;;;;;;5030038;28;20048;-76
2023/03/19 00:04:10;;;;;;;18.80;12.48;;;;;;;;;;5012313;28;20495;-76
2023/03/19 00:06:36;;;;;;;23.60;12.85;;;;;;;;;;5029987;28;20061;-77
2023/03/19 00:09:02;;;;;;;25.90;13.48;;;;;;;;;;5029862;28;20036;-76
2023/03/19 00:11:28;;;;;;;18.88;12.45;;;;;;;;;;5041824;28;20025;-76
2023/03/19 00:13:55;;;;;;;21.15;12.93;;;;;;;;;;5049864;28;20141;-77
2023/03/19 00:16:21;;;;;;;18.40;11.95;;;;;;;;;;5031846;28;20053;-78
2023/03/19 00:18:48;;;;;;;28.70;14.00;;;;;;;;;;5031603;28;20025;-78
2023/03/19 00:21:14;;;;;;;22.73;13.50;;;;;;;;;;5031961;28;20108;-76
2023/03/19 00:23:40;;;;;;;22.13;13.68;;;;;;;;;;5050384;28;20056;-76
2023/03/19 00:26:06;;;;;;;20.77;13.02;;;;;;;;;;5032127;28;20094;-77
2023/03/19 00:28:32;;;;;;;21.75;12.90;;;;;;;;;;5049790;28;20072;-77
2023/03/19 00:31:06;;;;;;;18.38;11.95;;;;;;;;;;5049964;28;20025;-77
2023/03/19 00:33:32;;;;;;;23.25;12.77;;;;;;;;;;5049576;28;20587;-76
2023/03/19 00:35:59;;;;;;;20.45;12.95;;;;;;;;;;5049709;28;20029;-77
2023/03/19 00:38:25;;;;;;;24.63;14.30;;;;;;;;;;5034786;28;20029;-76
2023/03/19 00:40:52;;;;;;;22.30;13.38;;;;;;;;;;5029503;28;20044;-77
2023/03/19 00:43:17;;;;;;;18.48;12.63;;;;;;;;;;5011723;28;20032;-77
2023/03/19 00:45:43;;;;;;;23.90;13.13;;;;;;;;;;5029501;28;20021;-78
2023/03/19 00:48:09;;;;;;;23.13;12.55;;;;;;;;;;5029114;28;20025;-77
2023/03/19 00:50:35;;;;;;;23.52;12.95;;;;;;;;;;5029575;28;20029;-77
2023/03/19 00:53:02;;;;;;;20.73;12.82;;;;;;;;;;5029478;28;20237;-77
2023/03/19 00:55:28;;;;;;;18.42;12.45;;;;;;;;;;5011701;28;20372;-76
2023/03/19 00:57:54;;;;;;;26.80;13.93;;;;;;;;;;5028980;28;20057;-76
2023/03/19 01:00:21;;;;;;;22.50;12.75;;;;;;;;;;5011629;28;20030;-76
2023/03/19 01:02:47;;;;;;;23.75;13.10;;;;;;;;;;5029107;28;20429;-77
2023/03/19 01:05:13;;;;;;;20.45;12.75;;;;;;;;;;5011609;28;20017;-76
2023/03/19 01:07:39;;;;;;;21.20;12.18;;;;;;;;;;5028804;28;20029;-77
2023/03/19 01:10:06;;;;;;;24.08;12.68;;;;;;;;;;5029431;28;20025;-77
2023/03/19 01:12:32;;;;;;;21.95;12.60;;;;;;;;;;5031073;28;20025;-75
2023/03/19 01:14:58;;;;;;;20.77;11.77;;;;;;;;;;5030976;28;20050;-77
2023/03/19 01:17:24;;;;;;;19.27;12.38;;;;;;;;;;5048318;28;20052;-78
2023/03/19 01:19:51;;;;;;;22.15;13.55;;;;;;;;;;5048927;28;20554;-77
2023/03/19 01:22:17;;;;;;;24.38;13.27;;;;;;;;;;5048762;28;20021;-77
2023/03/19 01:24:43;;;;;;;20.05;12.52;;;;;;;;;;5048248;28;20404;-77
2023/03/19 01:27:10;;;;;;;20.80;12.63;;;;;;;;;;5048330;28;20589;-77
2023/03/19 01:29:36;;;;;;;21.40;12.52;;;;;;;;;;5031495;28;20054;-77
2023/03/19 01:32:02;;;;;;;24.27;13.57;;;;;;;;;;5043269;28;20045;-77
2023/03/19 01:34:28;;;;;;;19.88;12.65;;;;;;;;;;5044354;28;20049;-76
2023/03/19 01:36:54;;;;;;;21.38;12.82;;;;;;;;;;5047109;28;20052;-76
2023/03/19 01:39:20;;;;;;;21.08;12.50;;;;;;;;;;5048116;28;20017;-76
2023/03/19 01:41:46;;;;;;;18.77;12.88;;;;;;;;;;5048798;28;20025;-75
2023/03/19 01:44:28;;;;;;;23.40;12.68;;;;;;;;;;5033285;28;20018;-75
2023/03/19 01:46:55;;;;;;;18.85;12.60;;;;;;;;;;5028312;28;20510;-75
2023/03/19 01:49:22;;;;;;;20.60;13.00;;;;;;;;;;5028355;28;20026;-76
2023/03/19 01:51:48;;;;;;;20.52;13.00;;;;;;;;;;5035942;28;20053;-75
2023/03/19 01:54:16;;;;;;;20.35;13.38;;;;;;;;;;5048546;28;20029;-75
2023/03/19 01:56:43;;;;;;;21.10;12.63;;;;;;;;;;5048254;28;20489;-75
2023/03/19 01:59:20;;;;;;;21.25;12.85;;;;;;;;;;5048112;28;20376;-76
2023/03/19 02:01:50;;;;;;;19.95;12.80;;;;;;;;;;5048219;28;20435;-77
2023/03/19 02:04:16;;;;;;;24.97;13.07;;;;;;;;;;5048199;28;20428;-76
2023/03/19 02:06:43;;;;;;;22.00;13.10;;;;;;;;;;5048318;28;20278;-76
2023/03/19 02:09:09;;;;;;;23.73;13.35;;;;;;;;;;5037946;28;20024;-75
2023/03/19 02:11:36;;;;;;;23.48;12.95;;;;;;;;;;5040924;28;20029;-76
2023/03/19 02:14:02;;;;;;;19.88;13.05;;;;;;;;;;5048342;28;20032;-76
2023/03/19 02:16:28;;;;;;;24.60;12.73;;;;;;;;;;5048528;28;20048;-76
2023/03/19 02:18:55;;;;;;;20.63;13.30;;;;;;;;;;5048207;28;20043;-76
2023/03/19 02:21:22;;;;;;;20.05;12.52;;;;;;;;;;5048484;28;20028;-76
2023/03/19 02:23:55;;;;;;;22.00;13.48;;;;;;;;;;5048141;28;20022;-78
2023/03/19 02:26:22;;;;;;;20.85;11.95;;;;;;;;;;5048122;28;20103;-76
2023/03/19 02:28:49;;;;;;;27.13;13.13;;;;;;;;;;5048852;28;20056;-75
2023/03/19 02:31:15;;;;;;;22.55;13.38;;;;;;;;;;5048002;28;20036;-76
2023/03/19 02:33:41;;;;;;;24.67;12.95;;;;;;;;;;5048041;28;20094;-76
2023/03/19 02:36:14;;;;;;;23.90;13.77;;;;;;;;;;5048409;28;20029;-76
2023/03/19 02:38:41;;;;;;;19.50;12.30;;;;;;;;;;5051262;28;20531;-75
2023/03/19 02:41:08;;;;;;;23.85;13.52;;;;;;;;;;5051344;28;20025;-76
2023/03/19 02:43:35;;;;;;;21.08;13.50;;;;;;;;;;5038769;28;20030;-75
2023/03/19 02:46:02;;;;;;;21.50;13.63;;;;;;;;;;5031816;28;20036;-76
2023/03/19 02:48:28;;;;;;;21.48;13.18;;;;;;;;;;5032022;28;20021;-75
2023/03/19 02:50:55;;;;;;;21.95;13.15;;;;;;;;;;5031727;28;20090;-76
2023/03/19 02:53:21;;;;;;;25.02;12.40;;;;;;;;;;5031618;28;20049;-76
2023/03/19 02:55:48;;;;;;;21.08;13.68;;;;;;;;;;5031496;28;20079;-76
2023/03/19 02:58:14;;;;;;;26.60;13.00;;;;;;;;;;5031317;28;20030;-75
2023/03/19 03:00:40;;;;;;;22.85;13.15;;;;;;;;;;5014255;28;20074;-76
2023/03/19 03:03:06;;;;;;;21.35;12.95;;;;;;;;;;5031568;28;20018;-76
2023/03/19 03:05:33;;;;;;;25.38;14.05;;;;;;;;;;5031636;28;20041;-76
2023/03/19 03:07:59;;;;;;;22.77;13.68;;;;;;;;;;5031930;28;20049;-75
2023/03/19 03:10:25;;;;;;;20.27;12.98;;;;;;;;;;5034799;28;20025;-75
2023/03/19 03:12:51;;;;;;;24.98;14.43;;;;;;;;;;5051003;28;20105;-75
2023/03/19 03:15:17;;;;;;;24.98;14.15;;;;;;;;;;5051355;28;20483;-74
2023/03/19 03:17:45;;;;;;;26.05;13.98;;;;;;;;;;5034896;28;20300;-76
2023/03/19 03:20:12;;;;;;;21.08;12.48;;;;;;;;;;5036201;28;20513;-75
2023/03/19 03:22:38;;;;;;;25.27;13.48;;;;;;;;;;5053782;28;20501;-78
2023/03/19 03:25:04;;;;;;;22.10;12.57;;;;;;;;;;5053291;28;20025;-77
2023/03/19 03:27:31;;;;;;;21.92;13.02;;;;;;;;;;5052937;28;20479;-75
2023/03/19 03:29:57;;;;;;;22.20;12.85;;;;;;;;;;5052115;28;20043;-75
2023/03/19 03:32:23;;;;;;;23.05;14.45;;;;;;;;;;5050614;28;20478;-74
2023/03/19 03:34:49;;;;;;;23.85;12.95;;;;;;;;;;5050385;28;20029;-75
2023/03/19 03:37:16;;;;;;;21.42;13.27;;;;;;;;;;5032237;28;20025;-75
2023/03/19 03:39:42;;;;;;;23.75;13.15;;;;;;;;;;5050314;28;20017;-75
2023/03/19 03:42:08;;;;;;;20.30;12.90;;;;;;;;;;5049548;28;20032;-76
2023/03/19 03:44:35;;;;;;;22.55;13.68;;;;;;;;;;5030271;28;20025;-77
2023/03/19 03:47:01;;;;;;;20.38;13.07;;;;;;;;;;5030258;28;20066;-76
2023/03/19 03:49:27;;;;;;;22.00;13.55;;;;;;;;;;5029815;28;20034;-75
2023/03/19 03:51:53;;;;;;;22.45;13.63;;;;;;;;;;5030310;28;20032;-75
2023/03/19 03:54:20;;;;;;;23.80;13.15;;;;;;;;;;5030905;28;20022;-76
2023/03/19 03:56:46;;;;;;;18.42;12.63;;;;;;;;;;5036388;28;20509;-76
2023/03/19 03:59:12;;;;;;;22.83;12.73;;;;;;;;;;5036730;28;20033;-76
2023/03/19 04:01:38;;;;;;;27.20;13.93;;;;;;;;;;5037614;28;20033;-75
2023/03/19 04:04:04;;;;;;;20.23;11.80;;;;;;;;;;5033319;28;20090;-76
2023/03/19 04:06:30;;;;;;;21.48;12.98;;;;;;;;;;5030500;28;20071;-76
2023/03/19 04:08:56;;;;;;;22.25;12.98;;;;;;;;;;5030143;28;20049;-76
2023/03/19 04:11:22;;;;;;;25.35;13.82;;;;;;;;;;5041014;28;20040;-75
2023/03/19 04:13:48;;;;;;;23.30;13.30;;;;;;;;;;5050144;28;20040;-75
2023/03/19 04:16:15;;;;;;;26.55;13.65;;;;;;;;;;5049763;28;20033;-75
2023/03/19 04:18:41;;;;;;;21.83;13.10;;;;;;;;;;5049370;28;20025;-75
2023/03/19 04:21:07;;;;;;;22.65;12.88;;;;;;;;;;5049777;28;20049;-75
2023/03/19 04:23:34;;;;;;;22.90;12.45;;;;;;;;;;5049677;28;20547;-77
2023/03/19 04:26:05;;;;;;;24.42;13.38;;;;;;;;;;5049971;28;20096;-75
2023/03/19 04:28:31;;;;;;;;;;;;;;;;;;5049734;28;20016;-75
2023/03/19 04:31:04;;;;;;;22.55;12.40;;;;;;;;;;5050004;28;19904;-75
2023/03/19 04:33:30;;;;;;;24.25;13.45;;;;;;;;;;5049551;28;20017;-75
2023/03/19 04:35:57;;;;;;;19.48;12.57;;;;;;;;;;5049442;28;20038;-75
2023/03/19 04:38:25;;;;;;;20.65;12.60;;;;;;;;;;5048881;28;20092;-76
2023/03/19 04:40:51;;;;;;;20.67;12.40;;;;;;;;;;5049385;28;20021;-75
2023/03/19 04:43:17;;;;;;;22.63;13.63;;;;;;;;;;5039317;28;20021;-76
2023/03/19 04:45:43;;;;;;;25.35;13.50;;;;;;;;;;5029838;28;20074;-75
2023/03/19 04:48:10;;;;;;;20.00;12.80;;;;;;;;;;5029640;28;20063;-75
2023/03/19 04:50:36;;;;;;;20.70;12.25;;;;;;;;;;5030309;28;20372;-75
2023/03/19 04:53:02;;;;;;;22.30;12.45;;;;;;;;;;5031985;28;20026;-75
2023/03/19 04:55:28;;;;;;;20.00;12.05;;;;;;;;;;5029975;28;20502;-76
2023/03/19 04:57:54;;;;;;;20.17;12.85;;;;;;;;;;5029524;28;20033;-76
2023/03/19 05:00:20;;;;;;;19.95;11.65;;;;;;;;;;5028916;28;20444;-76
2023/03/19 05:02:46;;;;;;;22.10;12.45;;;;;;;;;;5029418;28;20030;-76
2023/03/19 05:05:12;;;;;;;23.42;13.20;;;;;;;;;;5029410;28;20383;-76
2023/03/19 05:07:40;;;;;;;22.83;13.50;;;;;;;;;;5028927;28;20029;-76
2023/03/19 05:10:06;;;;;;;22.00;12.45;;;;;;;;;;5029704;28;20030;-76
2023/03/19 05:12:33;;;;;;;21.85;11.73;;;;;;;;;;5049131;28;20033;-76
2023/03/19 05:14:58;;;;;;;25.38;13.23;;;;;;;;;;5049285;28;20206;-77
2023/03/19 05:17:24;;;;;;;20.83;11.90;;;;;;;;;;5031200;28;20040;-76
2023/03/19 05:19:52;;;;;;;22.55;13.40;;;;;;;;;;5050756;28;20050;-76
2023/03/19 05:22:18;;;;;;;22.08;12.85;;;;;;;;;;5049211;28;20546;-76
2023/03/19 05:24:45;;;;;;;26.55;13.90;;;;;;;;;;5048847;28;20045;-76
2023/03/19 05:27:11;;;;;;;20.00;12.25;;;;;;;;;;5048584;28;20025;-76
2023/03/19 05:29:37;;;;;;;23.10;12.30;;;;;;;;;;5050240;28;20423;-76
2023/03/19 05:32:03;;;;;;;19.90;11.55;;;;;;;;;;5048962;28;20241;-76
2023/03/19 05:34:30;;;;;;;19.85;12.18;;;;;;;;;;5031469;28;20053;-76
2023/03/19 05:36:56;;;;;;;19.40;12.55;;;;;;;;;;5030909;28;20450;-76
2023/03/19 05:39:22;;;;;;;17.85;11.85;;;;;;;;;;5048887;28;20025;-77
2023/03/19 05:41:48;;;;;;;19.30;11.82;;;;;;;;;;5048663;28;20077;-76
2023/03/19 05:44:15;;;;;;;17.92;11.57;;;;;;;;;;5030651;28;20521;-76
2023/03/19 05:46:42;;;;;;;22.42;13.35;;;;;;;;;;5029124;28;20030;-75
2023/03/19 05:49:08;;;;;;;23.58;12.55;;;;;;;;;;5029104;28;20021;-76
2023/03/19 05:51:34;;;;;;;26.95;12.88;;;;;;;;;;5030244;28;20130;-77
2023/03/19 05:54:00;;;;;;;23.92;12.88;;;;;;;;;;5029476;28;20077;-77
2023/03/19 05:56:27;;;;;;;20.35;11.60;;;;;;;;;;5029062;28;20025;-77
2023/03/19 05:58:53;;;;;;;24.50;12.38;;;;;;;;;;5029769;28;20030;-77
2023/03/19 06:01:19;;;;;;;18.08;11.00;;;;;;;;;;5031688;28;20156;-77
2023/03/19 06:03:45;;;;;;;23.65;13.18;;;;;;;;;;5016024;28;20025;-76
2023/03/19 06:06:11;;;;;;;22.05;11.82;;;;;;;;;;5035117;28;20074;-76
2023/03/19 06:08:37;;;;;;;19.10;11.75;;;;;;;;;;5033991;28;20058;-76
2023/03/19 06:11:03;;;;;;;21.27;11.77;;;;;;;;;;5041766;28;20032;-77
2023/03/19 06:13:29;;;;;;;20.65;12.75;;;;;;;;;;5055484;28;20056;-77
2023/03/19 06:15:55;;;;;;;22.02;12.45;;;;;;;;;;5057572;28;20037;-77
2023/03/19 06:18:21;;;;;;;20.35;12.00;;;;;;;;;;5054643;28;20165;-77
2023/03/19 06:20:47;;;;;;;21.42;12.70;;;;;;;;;;5053553;28;20024;-76
2023/03/19 06:23:14;;;;;;;26.40;13.50;;;;;;;;;;5052559;28;20021;-76
2023/03/19 06:25:40;;;;;;;21.20;12.25;;;;;;;;;;5033742;28;20040;-77
2023/03/19 06:28:06;;;;;;;18.98;12.25;;;;;;;;;;5051875;28;20025;-77
2023/03/19 06:30:33;;;;;;;21.73;11.77;;;;;;;;;;5051427;28;20040;-77
2023/03/19 06:32:59;;;;;;;20.75;12.52;;;;;;;;;;5051295;28;20047;-78
2023/03/19 06:35:25;;;;;;;18.73;11.80;;;;;;;;;;5033335;28;20085;-77
2023/03/19 06:37:52;;;;;;;18.10;11.43;;;;;;;;;;5033117;28;20025;-77
2023/03/19 06:40:18;;;;;;;22.23;12.23;;;;;;;;;;5050992;28;20021;-77
2023/03/19 06:42:45;;;;;;;16.73;11.27;;;;;;;;;;5045729;28;20022;-76
2023/03/19 06:45:14;;;;;;;19.67;11.70;;;;;;;;;;5031161;28;20468;-77
2023/03/19 06:47:42;;;;;;;19.85;11.40;;;;;;;;;;5030809;28;20025;-77
2023/03/19 06:50:08;;;;;;;23.73;12.70;;;;;;;;;;5031123;28;20395;-76
2023/03/19 06:52:34;;;;;;;21.63;11.52;;;;;;;;;;5031142;28;20217;-75
2023/03/19 06:55:00;;;;;;;18.92;12.23;;;;;;;;;;5030927;28;20028;-76
2023/03/19 06:57:26;;;;;;;16.92;10.93;;;;;;;;;;5013292;28;20036;-75
2023/03/19 06:59:52;;;;;;;19.58;12.05;;;;;;;;;;5031559;28;20387;-75
2023/03/19 07:02:18;;;;;;;18.02;11.02;;;;;;;;;;5031165;28;20060;-76
2023/03/19 07:04:44;;;;;;;21.60;11.05;;;;;;;;;;5031422;28;20036;-76
2023/03/19 07:07:10;;;;;;;18.65;11.25;;;;;;;;;;5030787;28;20048;-76
2023/03/19 07:09:36;;;;;;;18.02;10.73;;;;;;;;;;5030903;28;20109;-76
2023/03/19 07:12:02;;;;;;;17.27;11.15;;;;;;;;;;5029414;28;20029;-76
2023/03/19 07:14:29;;;;;;;18.50;10.98;;;;;;;;;;5050983;28;20420;-76
2023/03/19 07:16:55;;;;;;;16.92;11.18;;;;;;;;;;5050519;28;20119;-76
2023/03/19 07:19:21;;;;;;;19.40;11.30;;;;;;;;;;5050614;28;20458;-76
2023/03/19 07:21:48;;;;;;;18.40;11.10;;;;;;;;;;5032699;28;20044;-74
2023/03/19 07:24:14;;;;;;;17.60;11.40;;;;;;;;;;5049799;28;20032;-77
2023/03/19 07:26:41;;;;;;;21.73;11.52;;;;;;;;;;5051254;28;20033;-76
2023/03/19 07:29:07;;;;;;;16.38;10.27;;;;;;;;;;5050787;28;20017;-76
2023/03/19 07:31:33;;;;;;;16.98;10.52;;;;;;;;;;5050508;28;20104;-76
2023/03/19 07:33:59;;;;;;;14.90;10.60;;;;;;;;;;5050809;28;20025;-75
2023/03/19 07:36:25;;;;;;;19.50;11.70;;;;;;;;;;5047681;28;20025;-77
2023/03/19 07:38:51;;;;;;;20.25;12.02;;;;;;;;;;5051179;28;20039;-77
2023/03/19 07:41:18;;;;;;;17.52;11.20;;;;;;;;;;5052867;28;20025;-77
2023/03/19 07:43:44;;;;;;;18.08;11.07;;;;;;;;;;5049378;28;20623;-77
2023/03/19 07:46:10;;;;;;;20.25;11.98;;;;;;;;;;5050136;28;20021;-77
2023/03/19 07:48:36;;;;;;;20.30;11.40;;;;;;;;;;5100102;27;20025;-77
2023/03/19 07:51:02;;;;;;;16.48;9.95;;;;;;;;;;5051673;28;20056;-77
2023/03/19 07:53:29;;;;;;;16.83;11.45;;;;;;;;;;5037916;28;20030;-77
2023/03/19 07:55:55;;;;;;;15.57;10.68;;;;;;;;;;5030547;28;20026;-76
2023/03/19 07:58:21;;;;;;;16.23;10.32;;;;;;;;;;5029993;28;20025;-75
2023/03/19 08:00:47;;;;;;;19.30;11.15;;;;;;;;;;5032367;28;20013;-76
2023/03/19 08:03:13;;;;;;;19.48;10.68;;;;;;;;;;5049963;28;20073;-78
2023/03/19 08:05:39;;;;;;;15.60;10.52;;;;;;;;;;5050126;28;20055;-76
2023/03/19 08:08:06;;;;;;;16.65;10.40;;;;;;;;;;5049954;28;20337;-77
2023/03/19 08:10:32;;;;;;;19.27;10.27;;;;;;;;;;5046276;28;20017;-76
2023/03/19 08:12:59;;;;;;;16.45;9.90;;;;;;;;;;5012315;28;20033;-76
2023/03/19 08:15:25;;;;;;;16.83;11.02;;;;;;;;;;5030077;28;20033;-77
2023/03/19 08:17:58;;;;;;;16.42;10.32;;;;;;;;;;5033487;28;20033;-76
2023/03/19 08:20:24;;;;;;;16.23;10.02;;;;;;;;;;5051269;28;20155;-76
2023/03/19 08:22:51;;;;;;;19.52;10.40;;;;;;;;;;5052652;28;20420;-77
2023/03/19 08:25:17;;;;;;;16.17;10.20;;;;;;;;;;5033052;28;20027;-77
2023/03/19 08:27:43;;;;;;;17.00;10.73;;;;;;;;;;5052507;28;20028;-77
2023/03/19 08:30:11;;;;;;;20.23;10.63;;;;;;;;;;5055585;28;20021;-76
2023/03/19 08:32:37;;;;;;;15.65;10.50;;;;;;;;;;5055819;28;20390;-77
2023/03/19 08:35:04;;;;;;;18.02;10.75;;;;;;;;;;5054315;28;20032;-77
2023/03/19 08:37:31;;;;;;;17.60;10.00;;;;;;;;;;5056251;28;20025;-77
2023/03/19 08:39:57;;;;;;;15.13;10.27;;;;;;;;;;5057717;28;20021;-76
2023/03/19 08:42:23;;;;;;;17.00;10.32;;;;;;;;;;5057391;28;20078;-75
2023/03/19 08:44:49;;;;;;;20.08;11.70;;;;;;;;;;5054482;28;20149;-76
2023/03/19 08:47:15;;;;;;;16.25;10.02;;;;;;;;;;5055383;28;20032;-77
2023/03/19 08:49:42;;;;;;;16.13;9.75;;;;;;;;;;5058588;28;20029;-77
2023/03/19 08:52:08;;;;;;;15.40;9.90;;;;;;;;;;5056181;28;20398;-77
2023/03/19 08:54:35;;;;;;;15.48;9.68;;;;;;;;;;5057127;28;20120;-77
2023/03/19 08:57:01;;;;;;;16.90;10.70;;;;;;;;;;5056766;28;20017;-75
2023/03/19 08:59:27;;;;;;;20.52;9.85;;;;;;;;;;5058334;28;20128;-78
2023/03/19 09:01:54;;;;;;;17.45;10.57;;;;;;;;;;5056520;28;20024;-77
2023/03/19 09:04:20;;;;;;;15.70;10.45;;;;;;;;;;5050940;28;20021;-76
2023/03/19 09:06:50;;;;;;;14.32;9.45;;;;;;;;;;5051829;28;20032;-75
2023/03/19 09:09:16;;;;;;;16.85;10.63;;;;;;;;;;5052713;28;20394;-76
2023/03/19 09:11:42;;;;;;;15.23;11.10;;;;;;;;;;5039182;28;20483;-77
2023/03/19 09:14:10;;;;;;;18.30;10.45;;;;;;;;;;5033243;28;20026;-77
2023/03/19 09:16:36;;;;;;;18.85;10.70;;;;;;;;;;5034084;28;20456;-76
2023/03/19 09:19:02;;;;;;;18.30;10.57;;;;;;;;;;5036383;28;20030;-76
2023/03/19 09:21:28;;;;;;;14.80;9.80;;;;;;;;;;5021721;28;20112;-77
2023/03/19 09:23:54;;;;;;;16.48;10.05;;;;;;;;;;5042506;28;20040;-77
2023/03/19 09:26:21;;;;;;;15.00;9.63;;;;;;;;;;5045819;28;20090;-77
2023/03/19 09:28:47;;;;;;;16.50;10.65;;;;;;;;;;5032149;28;20022;-76
2023/03/19 09:31:13;;;;;;;16.05;10.30;;;;;;;;;;5029309;28;20090;-76
2023/03/19 09:33:39;;;;;;;17.23;10.35;;;;;;;;;;5029103;28;20443;-76
2023/03/19 09:36:05;;;;;;;18.58;10.90;;;;;;;;;;5028616;28;20105;-76
2023/03/19 09:38:31;;;;;;;14.23;10.00;;;;;;;;;;5028579;28;20026;-77
2023/03/19 09:41:07;;;;;;;17.52;10.77;;;;;;;;;;5032120;28;20066;-77
2023/03/19 09:43:52;;;;;;;16.15;10.57;;;;;;;;;;5028835;28;20025;-77
2023/03/19 09:46:20;;;;;;;16.92;10.25;;;;;;;;;;5030202;28;20026;-76
2023/03/19 09:48:59;;;;;;;16.90;10.15;;;;;;;;;;5014343;28;20033;-77
2023/03/19 09:51:30;;;;;;;16.50;10.18;;;;;;;;;;5014491;28;20036;-77
2023/03/19 09:54:01;;;;;;;18.50;10.48;;;;;;;;;;5050758;28;20025;-76
2023/03/19 09:56:27;;;;;;;19.90;11.27;;;;;;;;;;5051946;28;20036;-76
2023/03/19 09:58:53;;;;;;;15.93;10.15;;;;;;;;;;5054988;28;20041;-77
2023/03/19 10:01:27;;;;;;;17.80;11.23;;;;;;;;;;5052917;28;20021;-76
2023/03/19 10:03:55;;;;;;;17.88;10.65;;;;;;;;;;5053017;28;20040;-78
2023/03/19 10:06:25;;;;;;;16.98;10.23;;;;;;;;;;5052070;28;20036;-76
2023/03/19 10:09:10;;;;;;;18.02;11.00;;;;;;;;;;5051936;28;20494;-77
2023/03/19 10:11:49;;;;;;;17.05;11.07;;;;;;;;;;5021627;28;20116;-76
2023/03/19 10:14:41;;;;;;;17.75;11.02;;;;;;;;;;5032819;28;20520;-76
2023/03/19 10:17:12;;;;;;;18.13;11.07;;;;;;;;;;5033180;28;20063;-76
2023/03/19 10:19:44;;;;;;;17.45;11.05;;;;;;;;;;5035209;28;20368;-75
2023/03/19 10:22:31;;;;;;;18.05;11.25;;;;;;;;;;5021823;28;20053;-77
2023/03/19 10:24:57;;;;;;;16.25;9.73;;;;;;;;;;5036845;28;20082;-77
2023/03/19 10:27:25;;;;;;;16.75;10.38;;;;;;;;;;5037101;28;20479;-75
2023/03/19 10:29:52;;;;;;;17.55;10.70;;;;;;;;;;5036390;28;20190;-76
2023/03/19 10:32:18;;;;;;;16.48;10.75;;;;;;;;;;5037790;28;20041;-77
2023/03/19 10:34:52;;;;;;;15.00;10.63;;;;;;;;;;5035052;28;20028;-76
2023/03/19 10:37:22;;;;;;;18.00;11.90;;;;;;;;;;5031574;28;20485;-73
2023/03/19 10:39:50;;;;;;;16.15;10.82;;;;;;;;;;5031680;28;20486;-76
2023/03/19 10:42:35;;;;;;;17.23;10.70;;;;;;;;;;5031801;28;20029;-77
2023/03/19 10:45:10;;;;;;;16.73;10.80;;;;;;;;;;5031561;28;20150;-75
2023/03/19 10:47:40;;;;;;;18.55;11.23;;;;;;;;;;5031044;28;20014;-78
2023/03/19 10:50:06;;;;;;;17.48;10.73;;;;;;;;;;5031049;28;20048;-74
2023/03/19 10:52:34;;;;;;;18.02;10.70;;;;;;;;;;5038193;28;20469;-76
2023/03/19 10:55:17;;;;;;;16.10;11.00;;;;;;;;;;5054692;28;20028;-77
2023/03/19 10:57:43;;;;;;;15.48;10.38;;;;;;;;;;5049694;28;20017;-77
2023/03/19 11:00:15;;;;;;;16.80;10.45;;;;;;;;;;5051293;28;20090;-77
2023/03/19 11:02:52;;;;;;;17.08;11.43;;;;;;;;;;5050987;28;20487;-77
2023/03/19 11:05:21;;;;;;;18.92;10.95;;;;;;;;;;5033081;28;20032;-76
2023/03/19 11:07:57;;;;;;;14.75;10.23;;;;;;;;;;5050973;28;20024;-77
2023/03/19 11:10:25;;;;;;;15.48;10.35;;;;;;;;;;5048233;28;20036;-76
2023/03/19 11:12:54;;;;;;;15.35;10.10;;;;;;;;;;5033325;28;20026;-76
2023/03/19 11:15:21;;;;;;;16.52;10.85;;;;;;;;;;5032951;28;20112;-76
2023/03/19 11:18:01;;;;;;;15.68;11.30;;;;;;;;;;5031260;28;20038;-76
2023/03/19 11:20:32;;;;;;;17.95;10.45;;;;;;;;;;5031176;28;20097;-76
2023/03/19 11:23:01;;;;;;;;;;;;;;;;;;5031859;28;20163;-77
2023/03/19 11:25:36;;;;;;;17.17;10.77;;;;;;;;;;5013301;28;19905;-77
2023/03/19 11:28:05;;;;;;;16.52;10.25;;;;;;;;;;5032141;28;20390;-77
2023/03/19 11:30:58;;;;;;;17.13;11.80;;;;;;;;;;5032462;28;20039;-77
2023/03/19 11:33:25;;;;;;;18.83;10.65;;;;;;;;;;4995047;28;20064;-76
2023/03/19 11:36:08;;;;;;;17.83;11.73;;;;;;;;;;5031959;28;20024;-77
2023/03/19 11:38:37;;;;;;;15.52;10.68;;;;;;;;;;5030712;28;20029;-76
2023/03/19 11:41:19;;;;;;;15.75;10.93;;;;;;;;;;5031480;28;20021;-76
2023/03/19 11:43:55;;;;;;;18.00;10.73;;;;;;;;;;5031355;28;20028;-76
2023/03/19 11:46:27;;;;;;;18.65;11.25;;;;;;;;;;5013491;28;20056;-76
2023/03/19 11:48:59;;;;;;;20.85;11.32;;;;;;;;;;5014318;28;20140;-76
2023/03/19 11:51:40;;;;;;;17.70;11.10;;;;;;;;;;5031096;28;20068;-73
2023/03/19 11:54:22;;;;;;;17.90;10.90;;;;;;;;;;5050840;28;20021;-77
2023/03/19 11:56:48;;;;;;;;;;;;;;;;;;5051381;28;20096;-77
2023/03/19 11:59:19;;;;;;;15.40;10.40;;;;;;;;;;5050983;28;20007;-77
2023/03/19 12:01:58;;;;;;;18.83;11.48;;;;;;;;;;5050823;28;20491;-76
2023/03/19 12:04:43;;;;;;;15.48;10.25;;;;;;;;;;5051640;28;20017;-75
2023/03/19 12:07:27;;;;;;;19.90;11.75;;;;;;;;;;5052576;28;20552;-76
2023/03/19 12:09:53;;;;;;;19.15;11.02;;;;;;;;;;5052812;28;20487;-76
2023/03/19 12:12:23;;;;;;;15.43;10.45;;;;;;;;;;5031643;28;20040;-78
2023/03/19 12:14:55;;;;;;;16.13;10.27;;;;;;;;;;5030478;28;20020;-76
2023/03/19 12:17:21;;;;;;;15.82;10.38;;;;;;;;;;5029819;28;20098;-76
2023/03/19 12:20:06;;;;;;;13.98;10.85;;;;;;;;;;5029811;28;20025;-76
2023/03/19 12:22:51;;;;;;;18.48;10.93;;;;;;;;;;5030341;28;20517;-78
2023/03/19 12:25:28;;;;;;;14.95;9.95;;;;;;;;;;5030383;28;20021;-74
2023/03/19 12:27:57;;;;;;;20.90;10.40;;;;;;;;;;5030008;28;20115;-79
2023/03/19 12:30:24;;;;;;;15.23;10.52;;;;;;;;;;5031176;28;20108;-76
2023/03/19 12:32:56;;;;;;;18.98;11.10;;;;;;;;;;5032030;28;20030;-75
2023/03/19 12:35:27;;;;;;;19.95;11.18;;;;;;;;;;5031647;28;20040;-76
2023/03/19 12:38:05;;;;;;;17.37;11.50;;;;;;;;;;5030322;28;20101;-77
2023/03/19 12:40:35;;;;;;;18.85;10.77;;;;;;;;;;5031370;28;20022;-78
2023/03/19 12:43:04;;;;;;;21.13;10.68;;;;;;;;;;5030239;28;20514;-76
2023/03/19 12:45:38;;;;;;;18.75;11.93;;;;;;;;;;5028526;28;20022;-76
2023/03/19 12:48:07;;;;;;;16.80;11.57;;;;;;;;;;5027849;28;20162;-76
2023/03/19 12:50:36;;;;;;;18.63;10.65;;;;;;;;;;5028413;28;20551;-76
2023/03/19 12:53:04;;;;;;;18.42;10.88;;;;;;;;;;5040170;28;20028;-77
2023/03/19 12:55:35;;;;;;;17.85;11.00;;;;;;;;;;5048971;28;20491;-77
2023/03/19 12:58:05;;;;;;;27.13;11.80;;;;;;;;;;5049156;28;20063;-76
2023/03/19 13:00:34;;;;;;;16.25;11.73;;;;;;;;;;5049161;28;20029;-76
2023/03/19 13:03:05;;;;;;;19.05;10.90;;;;;;;;;;5048346;28;20024;-76
2023/03/19 13:05:38;;;;;;;18.25;10.20;;;;;;;;;;5048935;28;20490;-75
2023/03/19 13:08:04;;;;;;;15.65;10.90;;;;;;;;;;5048833;28;20305;-77
2023/03/19 13:10:34;;;;;;;16.10;10.73;;;;;;;;;;5027813;28;20480;-76
2023/03/19 13:13:01;;;;;;;17.65;10.57;;;;;;;;;;5043897;28;20033;-77
2023/03/19 13:15:27;;;;;;;18.33;12.18;;;;;;;;;;5048704;28;20058;-78
2023/03/19 13:17:56;;;;;;;19.02;10.40;;;;;;;;;;5117241;27;20068;-75
2023/03/19 13:20:39;;;;;;;15.95;11.20;;;;;;;;;;5047997;28;20025;-75
2023/03/19 13:23:06;;;;;;;19.58;11.77;;;;;;;;;;5048994;28;20450;-76
2023/03/19 13:25:38;;;;;;;15.57;9.95;;;;;;;;;;5049171;28;20077;-76
2023/03/19 13:28:07;;;;;;;15.98;10.98;;;;;;;;;;5049007;28;20379;-76
2023/03/19 13:30:33;;;;;;;17.25;11.52;;;;;;;;;;5049061;28;20390;-75
2023/03/19 13:33:03;;;;;;;18.25;11.30;;;;;;;;;;5049686;28;20071;-75
2023/03/19 13:35:40;;;;;;;18.15;10.93;;;;;;;;;;5049180;28;20025;-74
2023/03/19 13:38:26;;;;;;;15.95;10.98;;;;;;;;;;5048899;28;20058;-76
2023/03/19 13:40:52;;;;;;;18.27;10.77;;;;;;;;;;5049253;28;20029;-75
2023/03/19 13:43:23;;;;;;;16.83;10.93;;;;;;;;;;5048913;28;20072;-74
2023/03/19 13:45:53;;;;;;;17.90;10.98;;;;;;;;;;5034878;27;20029;-76
2023/03/19 13:48:23;;;;;;;17.95;11.75;;;;;;;;;;5048601;28;20021;-76
2023/03/19 13:50:53;;;;;;;20.23;12.30;;;;;;;;;;5049633;28;20025;-77
2023/03/19 13:53:22;;;;;;;21.67;12.05;;;;;;;;;;5049863;28;20372;-77
2023/03/19 13:55:48;;;;;;;19.30;11.88;;;;;;;;;;5046220;28;20045;-76
2023/03/19 14:01:26;;;;;;;20.15;12.60;;;;;;;;;;5029815;28;20033;-78
2023/03/19 14:04:00;;;;;;;18.85;11.27;;;;;;;;;;5038068;28;20085;-77
2023/03/19 14:06:32;;;;;;;19.42;11.60;;;;;;;;;;5049235;28;20040;-76
2023/03/19 14:08:58;;;;;;;;;;;;;;;;;;5049532;28;20025;-78
2023/03/19 14:11:24;;;;;;;18.70;12.10;;;;;;;;;;5041593;28;19904;-77
2023/03/19 14:13:51;;;;;;;21.63;12.00;;;;;;;;;;5048815;28;20029;-76
2023/03/19 14:16:25;;;;;;;23.80;12.52;;;;;;;;;;5047102;28;20513;-77
2023/03/19 14:18:56;;;;;;;18.65;11.35;;;;;;;;;;5047315;28;20052;-77
2023/03/19 14:21:53;;;;;;;17.00;11.17;;;;;;;;;;5047383;28;20025;-77
2023/03/19 14:24:20;;;;;;;19.05;11.90;;;;;;;;;;5027464;28;20039;-77
2023/03/19 14:26:46;;;;;;;17.73;10.77;;;;;;;;;;5047130;28;20021;-76
2023/03/19 14:29:18;;;;;;;18.08;11.88;;;;;;;;;;5047213;28;20533;-74